Time;durP1;ratioP1;P1;durP2;ratioP2;P2;SDS_P1;SDS_P2;PMS_P1;PMS_P2;Temp;Humidity;BMP_temperature;BMP_pressure;BME280_temperature;BME280_humidity;BME280_pressure;Samples;Min_cycle;Max_cycle;Signal;HPM_P1;HPM_P2
2021/04/22 00:01:50;;;;;;;8.33;2.90;;;6.50;99.90;;;;;;6233729;23;20538;-63
2021/04/22 00:04:16;;;;;;;11.80;4.13;;;6.60;99.90;;;;;;6228560;22;20206;-63
2021/04/22 00:06:41;;;;;;;13.47;3.13;;;6.50;99.90;;;;;;6231596;23;20184;-62
2021/04/22 00:09:10;;;;;;;11.80;4.07;;;6.50;99.90;;;;;;6228228;23;20186;-61
2021/04/22 00:11:36;;;;;;;13.03;3.20;;;6.50;99.90;;;;;;6226549;23;20224;-62
2021/04/22 00:14:06;;;;;;;12.27;3.40;;;6.50;99.90;;;;;;6226623;22;20601;-61
2021/04/22 00:16:31;;;;;;;8.90;3.63;;;6.50;99.90;;;;;;6227602;23;20527;-62
2021/04/22 00:18:57;;;;;;;7.00;5.20;;;6.50;99.90;;;;;;6228935;23;20548;-61
2021/04/22 00:21:23;;;;;;;11.57;3.87;;;6.60;99.90;;;;;;6227547;23;20160;-62
2021/04/22 00:23:48;;;;;;;7.20;2.90;;;6.50;99.90;;;;;;6197619;22;20515;-62
2021/04/22 00:26:16;;;;;;;16.30;4.27;;;6.60;99.90;;;;;;6225164;23;20156;-62
2021/04/22 00:28:42;;;;;;;11.13;2.87;;;6.60;99.90;;;;;;6230549;23;20152;-62
2021/04/22 00:31:08;;;;;;;7.53;2.90;;;6.60;99.90;;;;;;6234845;23;20574;-62
2021/04/22 00:33:34;;;;;;;9.40;3.80;;;6.40;99.90;;;;;;6203514;22;20196;-62
2021/04/22 00:36:00;;;;;;;6.40;3.80;;;6.40;99.90;;;;;;6208224;23;21091;-61
2021/04/22 00:38:25;;;;;;;7.90;3.33;;;6.50;99.90;;;;;;6230504;23;20171;-61
2021/04/22 00:40:51;;;;;;;8.57;3.07;;;6.50;99.90;;;;;;6208736;23;20180;-63
2021/04/22 00:43:18;;;;;;;5.70;2.53;;;6.50;99.90;;;;;;6234274;22;20222;-60
2021/04/22 00:45:45;;;;;;;11.23;3.17;;;6.60;99.90;;;;;;6235692;23;20562;-63
2021/04/22 00:48:13;;;;;;;8.20;3.30;;;6.50;99.90;;;;;;6209876;23;20641;-62
2021/04/22 00:50:40;;;;;;;8.90;3.60;;;6.50;99.90;;;;;;6209895;23;21075;-62
2021/04/22 00:53:06;;;;;;;9.70;3.40;;;6.50;99.90;;;;;;6208267;22;20539;-60
2021/04/22 00:55:33;;;;;;;8.80;2.73;;;6.50;99.90;;;;;;6243380;23;20536;-61
2021/04/22 00:57:59;;;;;;;9.97;2.90;;;6.60;99.90;;;;;;6241571;23;20523;-61
2021/04/22 01:00:31;;;;;;;7.83;3.10;;;6.50;99.90;;;;;;6210191;23;20637;-63
2021/04/22 01:02:57;;;;;;;9.03;2.67;;;6.50;99.90;;;;;;6233832;22;20222;-62
2021/04/22 01:05:31;;;;;;;15.00;3.50;;;6.50;99.90;;;;;;6225598;23;20614;-61
2021/04/22 01:07:57;;;;;;;11.20;3.73;;;6.50;99.90;;;;;;6227312;22;20526;-62
2021/04/22 01:10:23;;;;;;;8.43;3.90;;;6.50;99.90;;;;;;6233905;23;21099;-64
2021/04/22 01:12:52;;;;;;;11.57;3.50;;;6.50;99.90;;;;;;6182248;22;20955;-62
2021/04/22 01:15:23;;;;;;;9.87;3.53;;;6.60;99.90;;;;;;6207427;22;20593;-62
2021/04/22 01:17:51;;;;;;;8.93;3.83;;;6.50;99.90;;;;;;6203900;23;20958;-62
2021/04/22 01:20:22;;;;;;;9.63;3.03;;;6.50;99.90;;;;;;6233897;23;20631;-62
2021/04/22 01:22:49;;;;;;;7.77;3.00;;;6.50;99.90;;;;;;6234593;23;20535;-62
2021/04/22 01:25:19;;;;;;;11.23;2.90;;;6.50;99.90;;;;;;6229638;22;20594;-62
2021/04/22 01:27:45;;;;;;;11.23;3.63;;;6.40;99.90;;;;;;6232939;23;20564;-62
2021/04/22 01:30:18;;;;;;;9.63;3.40;;;6.50;99.90;;;;;;6208215;23;20588;-62
2021/04/22 01:32:43;;;;;;;11.57;3.33;;;6.50;99.90;;;;;;6177958;23;20591;-62
2021/04/22 01:35:12;;;;;;;6.47;3.00;;;6.50;99.90;;;;;;6231074;22;21374;-62
2021/04/22 01:37:38;;;;;;;9.63;3.77;;;6.60;99.90;;;;;;6234043;23;20243;-63
2021/04/22 01:40:06;;;;;;;17.83;3.30;;;6.60;99.90;;;;;;6231410;23;20659;-62
2021/04/22 01:42:32;;;;;;;12.37;3.63;;;6.60;99.90;;;;;;6230912;23;21104;-62
2021/04/22 01:44:58;;;;;;;8.23;3.33;;;6.60;99.90;;;;;;6205687;22;20598;-62
2021/04/22 01:47:23;;;;;;;10.83;3.23;;;6.50;99.90;;;;;;6205026;23;20594;-62
2021/04/22 01:49:49;;;;;;;9.17;2.70;;;6.50;99.90;;;;;;6233597;23;20611;-62
2021/04/22 01:52:15;;;;;;;9.73;3.90;;;6.50;99.90;;;;;;6205105;23;20187;-62
2021/04/22 01:54:40;;;;;;;8.90;3.17;;;6.60;99.90;;;;;;6228250;22;20833;-62
2021/04/22 01:57:07;;;;;;;10.37;5.07;;;6.70;99.90;;;;;;6232417;23;20228;-62
2021/04/22 01:59:33;;;;;;;11.20;3.70;;;6.70;99.90;;;;;;6231891;23;20152;-62
2021/04/22 02:01:59;;;;;;;7.30;3.43;;;6.70;99.90;;;;;;6235639;23;21239;-62
2021/04/22 02:04:24;;;;;;;8.20;3.80;;;6.70;99.90;;;;;;6217823;22;20685;-63
2021/04/22 02:06:50;;;;;;;8.40;3.40;;;6.70;99.90;;;;;;6244552;23;20167;-62
2021/04/22 02:09:16;;;;;;;12.00;3.57;;;6.70;99.90;;;;;;6207159;23;20160;-62
2021/04/22 02:11:41;;;;;;;9.93;4.07;;;6.60;99.90;;;;;;6235361;23;20497;-61
2021/04/22 02:14:07;;;;;;;8.33;3.27;;;6.80;99.90;;;;;;6227279;22;20761;-62
2021/04/22 02:16:34;;;;;;;12.17;3.27;;;6.90;99.90;;;;;;6232289;23;20239;-62
2021/04/22 02:19:03;;;;;;;7.67;2.83;;;6.90;99.90;;;;;;6207576;23;20164;-62
2021/04/22 02:21:28;;;;;;;9.80;3.50;;;6.90;99.90;;;;;;6230679;23;20531;-62
2021/04/22 02:23:54;;;;;;;9.13;3.10;;;6.90;99.90;;;;;;6228606;22;20618;-61
2021/04/22 02:26:19;;;;;;;8.40;2.67;;;7.00;99.90;;;;;;6228385;23;20156;-63
2021/04/22 02:28:45;;;;;;;7.77;2.67;;;6.90;99.90;;;;;;6205003;23;20557;-63
2021/04/22 02:31:10;;;;;;;12.63;2.73;;;6.90;99.90;;;;;;6234314;23;20199;-63
2021/04/22 02:33:36;;;;;;;7.83;2.43;;;7.00;99.90;;;;;;6229199;22;20210;-61
2021/04/22 02:36:01;;;;;;;9.40;3.20;;;7.00;99.90;;;;;;6230801;23;20160;-63
2021/04/22 02:38:27;;;;;;;8.53;2.80;;;7.00;99.90;;;;;;6231263;23;20156;-62
2021/04/22 02:40:53;;;;;;;9.67;2.97;;;7.10;99.90;;;;;;6233091;23;20196;-61
2021/04/22 02:43:19;;;;;;;8.00;2.50;;;7.10;99.90;;;;;;6231742;22;20199;-62
2021/04/22 02:45:48;;;;;;;8.50;3.33;;;7.10;99.90;;;;;;6230978;23;20201;-62
2021/04/22 02:48:14;;;;;;;10.40;3.50;;;7.20;99.90;;;;;;6232336;23;20539;-63
2021/04/22 02:50:43;;;;;;;9.50;2.80;;;7.20;99.90;;;;;;6231684;23;20622;-62
2021/04/22 02:53:09;;;;;;;8.47;3.03;;;7.20;99.90;;;;;;6228571;22;20563;-61
2021/04/22 02:55:36;;;;;;;9.03;2.70;;;7.10;99.90;;;;;;6230883;23;20566;-62
2021/04/22 02:58:02;;;;;;;6.97;2.10;;;7.10;99.90;;;;;;6205650;23;20579;-62
2021/04/22 03:00:28;;;;;;;7.33;2.50;;;7.10;99.90;;;;;;6233499;23;21047;-62
2021/04/22 03:02:54;;;;;;;7.30;3.27;;;7.10;99.90;;;;;;6192471;22;20713;-62
2021/04/22 03:05:20;;;;;;;12.60;3.00;;;7.00;99.90;;;;;;6230922;23;21035;-62
2021/04/22 03:07:46;;;;;;;7.70;2.90;;;6.90;99.90;;;;;;6234243;23;20473;-62
2021/04/22 03:10:17;;;;;;;15.47;2.77;;;7.00;99.90;;;;;;6230756;23;20160;-62
2021/04/22 03:12:46;;;;;;;6.70;3.00;;;7.00;99.90;;;;;;6230958;22;20184;-61
2021/04/22 03:15:12;;;;;;;10.47;3.17;;;7.10;99.90;;;;;;6201364;22;20594;-62
2021/04/22 03:17:42;;;;;;;8.47;2.67;;;7.00;99.90;;;;;;6202403;23;20550;-61
2021/04/22 03:20:09;;;;;;;11.97;3.40;;;7.10;99.90;;;;;;6227428;23;20530;-62
2021/04/22 03:22:35;;;;;;;6.10;2.97;;;7.20;99.90;;;;;;6225726;23;20626;-62
2021/04/22 03:25:00;;;;;;;7.13;2.50;;;7.20;99.90;;;;;;6239833;22;20590;-62
2021/04/22 03:27:29;;;;;;;8.13;3.10;;;7.20;99.90;;;;;;6229843;23;20745;-63
2021/04/22 03:29:57;;;;;;;6.13;2.60;;;7.20;99.90;;;;;;6230905;23;20156;-63
2021/04/22 03:32:26;;;;;;;7.40;2.30;;;7.20;99.90;;;;;;6228835;23;20712;-62
2021/04/22 03:34:52;;;;;;;9.57;2.80;;;7.20;99.90;;;;;;6227164;22;20962;-62
2021/04/22 03:37:21;;;;;;;8.83;3.40;;;7.30;99.90;;;;;;6201831;23;20634;-63
2021/04/22 03:39:47;;;;;;;11.50;2.20;;;7.30;99.90;;;;;;6203676;23;20594;-62
2021/04/22 03:42:16;;;;;;;10.47;2.67;;;7.20;99.90;;;;;;6227943;23;20561;-62
2021/04/22 03:44:42;;;;;;;9.93;2.77;;;7.30;99.90;;;;;;6204756;22;20598;-62
2021/04/22 03:47:11;;;;;;;6.00;2.83;;;7.30;99.90;;;;;;6230042;23;20530;-61
2021/04/22 03:49:37;;;;;;;10.83;3.03;;;7.30;99.90;;;;;;6204968;23;20477;-62
2021/04/22 03:52:07;;;;;;;7.97;3.10;;;7.20;99.90;;;;;;6231667;23;20651;-61
2021/04/22 03:54:33;;;;;;;7.67;2.97;;;7.20;99.90;;;;;;6227488;22;20594;-62
2021/04/22 03:57:00;;;;;;;10.47;3.10;;;7.10;99.90;;;;;;6227850;23;20535;-62
2021/04/22 03:59:27;;;;;;;9.13;3.00;;;7.20;99.90;;;;;;6206562;23;20609;-62
2021/04/22 04:01:55;;;;;;;10.10;3.20;;;7.20;99.90;;;;;;6203963;23;20597;-61
2021/04/22 04:04:23;;;;;;;9.90;3.03;;;7.20;99.90;;;;;;6231739;22;20655;-62
2021/04/22 04:06:49;;;;;;;8.63;3.13;;;7.20;99.90;;;;;;6226871;23;20614;-62
2021/04/22 04:09:17;;;;;;;11.93;4.10;;;7.20;99.90;;;;;;6234936;23;20613;-62
2021/04/22 04:11:42;;;;;;;12.23;2.80;;;7.20;99.90;;;;;;6233133;23;20179;-62
2021/04/22 04:14:08;;;;;;;8.97;3.57;;;7.30;99.90;;;;;;6199387;22;21166;-62
2021/04/22 04:16:33;;;;;;;9.93;2.97;;;7.20;99.90;;;;;;6231671;23;20152;-62
2021/04/22 04:18:59;;;;;;;9.90;2.53;;;7.10;99.90;;;;;;6231643;23;20610;-62
2021/04/22 04:21:25;;;;;;;11.13;3.60;;;7.10;99.90;;;;;;6231893;23;20238;-62
2021/04/22 04:23:51;;;;;;;10.97;3.00;;;7.10;99.90;;;;;;6231727;22;20203;-62
2021/04/22 04:26:17;;;;;;;6.80;3.07;;;7.10;99.90;;;;;;6202999;23;20634;-61
2021/04/22 04:28:45;;;;;;;7.00;2.50;;;7.30;99.90;;;;;;6205520;23;20216;-61
2021/04/22 04:31:11;;;;;;;12.83;3.47;;;7.20;99.90;;;;;;6227915;23;20581;-61
2021/04/22 04:33:37;;;;;;;8.47;3.70;;;7.20;99.90;;;;;;6226143;22;20586;-62
2021/04/22 04:36:05;;;;;;;8.40;3.23;;;7.30;99.90;;;;;;6230184;23;20625;-62
2021/04/22 04:38:31;;;;;;;11.63;4.57;;;7.20;99.90;;;;;;6229210;23;20156;-62
2021/04/22 04:40:56;;;;;;;10.73;2.90;;;7.30;99.90;;;;;;6200264;23;21221;-62
2021/04/22 04:43:22;;;;;;;8.73;3.30;;;7.30;99.90;;;;;;6226835;22;20207;-63
2021/04/22 04:45:47;;;;;;;11.77;3.30;;;7.30;99.90;;;;;;6230360;23;20504;-66
2021/04/22 04:48:13;;;;;;;9.73;2.97;;;7.30;99.90;;;;;;6207566;23;20195;-62
2021/04/22 04:50:41;;;;;;;10.40;3.53;;;7.30;99.90;;;;;;6234601;23;20617;-62
2021/04/22 04:53:07;;;;;;;6.43;2.57;;;7.30;99.90;;;;;;6223140;22;20156;-62
2021/04/22 04:55:32;;;;;;;9.97;3.33;;;7.30;99.90;;;;;;6202349;23;21064;-63
2021/04/22 04:57:58;;;;;;;10.30;3.27;;;7.30;99.90;;;;;;6234251;23;20228;-62
2021/04/22 05:00:26;;;;;;;10.73;2.90;;;7.40;99.90;;;;;;6226316;23;20156;-61
2021/04/22 05:02:52;;;;;;;10.77;3.27;;;7.30;99.90;;;;;;6230512;22;20166;-62
2021/04/22 05:05:20;;;;;;;10.93;3.00;;;7.40;99.90;;;;;;6231731;22;20590;-61
2021/04/22 05:07:46;;;;;;;11.40;3.10;;;7.30;99.90;;;;;;6230523;23;20639;-61
2021/04/22 05:10:12;;;;;;;9.27;2.80;;;7.30;99.90;;;;;;6233011;23;20773;-62
2021/04/22 05:12:40;;;;;;;12.97;4.53;;;7.40;99.90;;;;;;6224927;23;20183;-61
2021/04/22 05:15:07;;;;;;;8.60;2.73;;;7.40;99.90;;;;;;6230627;22;20599;-62
2021/04/22 05:17:33;;;;;;;11.63;4.20;;;7.40;99.90;;;;;;6235476;23;20566;-62
2021/04/22 05:20:01;;;;;;;7.40;2.33;;;7.40;99.90;;;;;;6230826;23;20551;-60
2021/04/22 05:22:26;;;;;;;7.87;2.40;;;7.30;99.90;;;;;;6223682;23;20562;-61
2021/04/22 05:24:52;;;;;;;8.77;2.60;;;7.30;99.90;;;;;;6229522;22;20913;-61
2021/04/22 05:27:18;;;;;;;10.63;2.80;;;7.50;99.90;;;;;;6203989;23;20171;-60
2021/04/22 05:29:46;;;;;;;4.67;2.50;;;7.60;99.90;;;;;;6224168;23;20164;-62
2021/04/22 05:32:12;;;;;;;10.93;3.80;;;7.60;99.90;;;;;;6234106;23;20180;-62
2021/04/22 05:34:37;;;;;;;7.97;2.63;;;7.70;99.90;;;;;;6225847;22;20590;-61
2021/04/22 05:37:03;;;;;;;5.57;2.70;;;7.60;99.90;;;;;;6232031;23;20183;-62
2021/04/22 05:39:28;;;;;;;7.00;2.70;;;7.70;99.90;;;;;;6243051;23;20189;-62
2021/04/22 05:41:56;;;;;;;6.60;2.23;;;7.70;99.90;;;;;;6231996;23;20151;-61
2021/04/22 05:44:21;;;;;;;10.57;2.67;;;7.70;99.90;;;;;;6234946;22;20207;-62
2021/04/22 05:46:47;;;;;;;11.17;2.77;;;7.60;99.90;;;;;;6225910;23;20558;-62
2021/04/22 05:49:15;;;;;;;11.73;3.30;;;7.60;99.90;;;;;;6202606;23;20268;-62
2021/04/22 05:51:42;;;;;;;6.10;2.77;;;7.70;99.90;;;;;;6228791;23;20708;-62
2021/04/22 05:54:09;;;;;;;8.13;2.77;;;7.60;99.90;;;;;;6035271;22;21268;-60
2021/04/22 05:56:37;;;;;;;8.70;3.13;;;7.70;99.90;;;;;;5949621;23;21254;-62
2021/04/22 06:01:42;;;;;;;11.70;3.07;;;7.70;99.90;;;;;;6155681;23;20964;-87
2021/04/22 06:04:08;;;;;;;12.17;3.93;;;8.00;99.90;;;;;;6210484;22;20602;-88
2021/04/22 06:06:33;;;;;;;10.93;2.80;;;7.80;99.90;;;;;;6243478;23;20189;-86
2021/04/22 06:08:59;;;;;;;8.80;2.40;;;7.80;99.90;;;;;;6224045;23;20178;-84
2021/04/22 06:11:25;;;;;;;6.87;2.37;;;7.90;99.90;;;;;;6245045;23;20625;-90
2021/04/22 06:13:50;;;;;;;12.87;3.20;;;7.90;99.90;;;;;;6196482;22;20264;-87
2021/04/22 06:16:16;;;;;;;10.83;2.97;;;7.90;99.90;;;;;;6219796;23;20473;-88
2021/04/22 06:18:42;;;;;;;12.70;2.87;;;7.90;99.90;;;;;;6223181;23;20152;-87
2021/04/22 06:21:09;;;;;;;5.70;3.07;;;8.00;99.90;;;;;;6195927;23;20168;-86
2021/04/22 06:23:41;;;;;;;11.33;3.00;;;8.00;99.90;;;;;;6222318;22;20207;-88
2021/04/22 06:26:07;;;;;;;8.87;3.57;;;8.00;99.90;;;;;;6199003;23;20559;-87
2021/04/22 06:28:32;;;;;;;10.87;3.50;;;8.10;99.90;;;;;;6198368;23;20575;-87
2021/04/22 06:31:04;;;;;;;8.20;3.37;;;8.30;99.90;;;;;;6220338;23;20190;-87
2021/04/22 06:33:32;;;;;;;23.73;3.53;;;8.20;99.90;;;;;;6326436;22;20219;-85
2021/04/22 06:35:57;;;;;;;11.47;3.17;;;8.20;99.90;;;;;;6224104;23;20881;-86
2021/04/22 06:38:32;;;;;;;8.13;2.80;;;8.30;99.90;;;;;;6223746;23;20540;-89
2021/04/22 06:40:58;;;;;;;7.27;2.80;;;8.40;99.90;;;;;;6194847;23;20155;-88
2021/04/22 06:43:23;;;;;;;12.93;3.37;;;8.50;99.90;;;;;;6329327;22;21255;-89
2021/04/22 06:45:52;;;;;;;11.07;3.50;;;8.50;99.90;;;;;;6199657;23;20228;-86
2021/04/22 06:48:18;;;;;;;15.93;3.23;;;8.50;99.90;;;;;;6330690;22;20882;-87
2021/04/22 06:50:53;;;;;;;12.80;3.67;;;8.50;99.90;;;;;;6198483;23;20599;-86
2021/04/22 06:53:24;;;;;;;7.67;2.90;;;8.60;99.90;;;;;;6199793;22;20620;-85
2021/04/22 06:55:50;;;;;;;10.10;4.10;;;8.60;99.90;;;;;;6201978;23;20559;-85
2021/04/22 06:58:16;;;;;;;8.97;2.80;;;8.60;99.90;;;;;;6331890;22;20560;-86
2021/04/22 07:00:53;;;;;;;9.53;3.70;;;8.60;99.90;;;;;;6199181;23;20171;-86
2021/04/22 07:03:28;;;;;;;9.03;3.47;;;8.50;99.90;;;;;;6202072;22;20670;-86
2021/04/22 07:06:02;;;;;;;11.47;3.23;;;8.70;99.90;;;;;;6225855;23;21066;-87
2021/04/22 07:08:31;;;;;;;7.60;3.00;;;8.50;99.90;;;;;;6199888;23;20595;-86
2021/04/22 07:10:59;;;;;;;11.70;3.00;;;8.60;99.90;;;;;;6225742;23;20583;-86
2021/04/22 07:13:25;;;;;;;7.63;2.80;;;8.60;99.90;;;;;;6223319;22;20579;-85
2021/04/22 07:15:53;;;;;;;7.67;2.70;;;8.60;99.90;;;;;;6198586;23;20583;-85
2021/04/22 07:18:39;;;;;;;7.00;3.07;;;8.70;99.90;;;;;;6226856;23;20216;-86
2021/04/22 07:21:08;;;;;;;7.30;2.77;;;8.80;99.90;;;;;;6195923;23;20623;-87
2021/04/22 07:23:34;;;;;;;7.30;2.80;;;8.80;99.90;;;;;;6199128;22;20933;-87
2021/04/22 07:25:59;;;;;;;13.63;3.70;;;8.90;99.90;;;;;;6200800;23;20603;-87
2021/04/22 07:28:26;;;;;;;9.10;2.93;;;9.00;99.90;;;;;;6200425;23;20593;-87
2021/04/22 07:30:52;;;;;;;7.37;2.97;;;8.90;99.90;;;;;;6227088;23;20152;-86
2021/04/22 07:33:20;;;;;;;10.77;3.03;;;9.00;99.90;;;;;;6198145;22;20612;-86
2021/04/22 07:35:46;;;;;;;10.30;2.57;;;8.90;99.90;;;;;;6200589;23;20577;-85
2021/04/22 07:38:21;;;;;;;8.73;2.43;;;9.10;99.90;;;;;;6201090;23;20560;-87
2021/04/22 07:40:50;;;;;;;11.00;3.23;;;9.00;99.90;;;;;;6223812;23;20576;-88
2021/04/22 07:43:16;;;;;;;8.60;3.00;;;9.00;99.90;;;;;;6222033;22;20579;-87
2021/04/22 07:45:45;;;;;;;9.00;3.37;;;9.20;99.90;;;;;;6224376;23;20547;-87
2021/04/22 07:48:12;;;;;;;13.17;3.40;;;9.10;99.90;;;;;;6195505;23;20179;-86
2021/04/22 07:50:40;;;;;;;10.37;3.40;;;9.40;99.90;;;;;;6198878;23;20605;-89
2021/04/22 07:53:07;;;;;;;10.93;3.53;;;9.70;99.90;;;;;;6198500;22;20629;-85
2021/04/22 07:55:36;;;;;;;10.80;3.77;;;9.60;99.90;;;;;;6221994;23;20716;-86
2021/04/22 07:58:02;;;;;;;9.93;3.50;;;9.60;99.90;;;;;;6330532;22;20574;-90
2021/04/22 08:00:31;;;;;;;8.80;3.07;;;9.50;99.90;;;;;;6226699;23;20540;-85
2021/04/22 08:02:59;;;;;;;12.70;3.93;;;9.50;99.90;;;;;;6216525;22;20591;-86
2021/04/22 08:05:30;;;;;;;10.40;3.37;;;9.40;99.90;;;;;;6329602;22;21159;-86
2021/04/22 08:07:58;;;;;;;7.70;3.93;;;9.60;99.90;;;;;;6197590;23;20585;-85
2021/04/22 08:10:29;;;;;;;8.97;3.17;;;9.60;99.90;;;;;;6194084;23;20596;-88
2021/04/22 08:12:55;;;;;;;11.27;3.10;;;9.40;99.90;;;;;;6221084;22;20614;-87
2021/04/22 08:15:24;;;;;;;6.63;3.13;;;9.60;99.90;;;;;;6193341;23;20630;-89
2021/04/22 08:17:50;;;;;;;8.50;3.17;;;9.70;99.90;;;;;;6195641;23;20566;-87
2021/04/22 08:20:19;;;;;;;11.97;3.23;;;9.80;99.90;;;;;;6196015;23;20568;-86
2021/04/22 08:22:45;;;;;;;7.90;2.97;;;9.80;99.90;;;;;;6195311;23;20180;-85
2021/04/22 08:25:19;;;;;;;10.07;3.70;;;9.80;99.90;;;;;;6193467;22;20666;-88
2021/04/22 08:27:51;;;;;;;13.30;4.07;;;9.60;99.90;;;;;;6196877;23;20567;-89
2021/04/22 08:30:20;;;;;;;13.10;4.10;;;9.50;99.90;;;;;;6224139;23;20523;-86
2021/04/22 08:32:49;;;;;;;9.23;3.37;;;9.50;99.90;;;;;;6198262;23;20625;-88
2021/04/22 08:35:27;;;;;;;7.17;3.70;;;9.60;99.90;;;;;;6197212;22;20579;-88
2021/04/22 08:37:58;;;;;;;8.57;3.33;;;9.60;99.90;;;;;;6201871;23;20627;-85
2021/04/22 08:40:25;;;;;;;6.17;3.50;;;9.70;99.90;;;;;;6195925;23;20579;-87
2021/04/22 08:42:52;;;;;;;6.53;3.10;;;9.60;99.90;;;;;;6224638;23;20575;-88
2021/04/22 08:45:18;;;;;;;8.60;3.63;;;9.70;99.90;;;;;;6226070;22;20675;-89
2021/04/22 08:47:45;;;;;;;6.13;3.27;;;10.10;99.90;;;;;;6195617;23;20666;-90
2021/04/22 08:50:26;;;;;;;14.30;4.30;;;10.00;99.90;;;;;;6218717;23;20540;-86
2021/04/22 08:53:05;;;;;;;11.17;3.70;;;10.00;99.90;;;;;;6198143;23;20655;-86
2021/04/22 08:55:36;;;;;;;7.50;3.40;;;10.10;99.90;;;;;;6193771;23;21044;-88
2021/04/22 08:58:07;;;;;;;8.47;3.73;;;10.10;99.90;;;;;;6195881;23;20631;-87
2021/04/22 09:00:39;;;;;;;11.50;4.80;;;10.00;99.90;;;;;;6192916;23;20773;-88
2021/04/22 09:03:05;;;;;;;10.03;4.10;;;9.90;99.90;;;;;;6191548;22;20599;-86
2021/04/22 09:05:31;;;;;;;9.77;4.17;;;9.80;99.90;;;;;;6193843;23;20709;-85
2021/04/22 09:07:57;;;;;;;11.47;4.90;;;9.80;99.90;;;;;;6324921;22;20564;-87
2021/04/22 09:10:25;;;;;;;10.23;3.90;;;9.80;99.90;;;;;;6196527;23;20195;-89
2021/04/22 09:13:10;;;;;;;10.23;4.47;;;9.70;99.90;;;;;;6224364;23;20251;-84
2021/04/22 09:15:39;;;;;;;7.97;3.40;;;9.70;99.90;;;;;;6224577;23;20594;-89
2021/04/22 09:18:09;;;;;;;9.50;5.20;;;9.80;99.90;;;;;;6176907;22;20578;-90
2021/04/22 09:20:42;;;;;;;7.00;3.87;;;9.80;99.90;;;;;;6222543;23;20513;-86
2021/04/22 09:23:24;;;;;;;9.77;3.83;;;10.00;99.90;;;;;;6218638;22;20594;-87
2021/04/22 09:26:06;;;;;;;6.70;3.60;;;10.10;99.90;;;;;;6193494;23;20554;-88
2021/04/22 09:28:40;;;;;;;11.90;4.13;;;10.10;99.90;;;;;;6168753;23;20577;-88
2021/04/22 09:31:12;;;;;;;9.07;4.23;;;10.00;99.90;;;;;;6221200;23;21136;-86
2021/04/22 09:33:39;;;;;;;8.43;4.23;;;10.10;99.90;;;;;;6191862;22;20595;-86
2021/04/22 09:36:16;;;;;;;11.40;4.53;;;10.20;99.90;;;;;;6193670;23;20900;-88
2021/04/22 09:38:52;;;;;;;11.87;4.40;;;10.10;99.90;;;;;;6327009;22;20575;-88
2021/04/22 09:41:23;;;;;;;8.27;4.20;;;10.10;99.90;;;;;;6218102;22;21846;-88
2021/04/22 09:44:06;;;;;;;7.50;3.60;;;10.20;99.90;;;;;;6192106;22;20632;-87
2021/04/22 09:46:33;;;;;;;6.53;3.70;;;10.30;99.90;;;;;;6192019;23;20599;-86
2021/04/22 09:49:08;;;;;;;12.03;4.40;;;10.40;99.90;;;;;;6215765;23;20563;-91
2021/04/22 09:51:34;;;;;;;6.80;3.93;;;10.50;99.90;;;;;;6217714;23;20607;-85
2021/04/22 09:54:22;;;;;;;11.73;4.80;;;10.50;99.90;;;;;;6222122;22;20595;-85
2021/04/22 09:56:54;;;;;;;7.90;3.67;;;10.40;99.90;;;;;;6196982;23;20157;-86
2021/04/22 09:59:23;;;;;;;10.20;3.60;;;10.40;99.90;;;;;;6197084;23;20594;-85
2021/04/22 10:02:04;;;;;;;8.93;4.60;;;10.40;99.90;;;;;;6195908;23;20587;-87
2021/04/22 10:04:42;;;;;;;5.57;4.00;;;10.50;99.90;;;;;;6192813;22;20618;-89
2021/04/22 10:07:21;;;;;;;18.20;4.57;;;10.50;99.90;;;;;;6194397;23;20628;-84
2021/04/22 10:09:47;;;;;;;13.50;4.57;;;10.50;99.90;;;;;;6224633;23;20547;-84
2021/04/22 10:12:40;;;;;;;6.80;3.87;;;10.60;99.90;;;;;;6225487;23;20653;-84
2021/04/22 10:15:17;;;;;;;9.10;3.93;;;10.60;99.90;;;;;;6221086;22;20211;-87
2021/04/22 10:18:04;;;;;;;6.83;3.90;;;10.60;99.90;;;;;;6198940;23;20578;-89
2021/04/22 10:20:32;;;;;;;13.17;4.60;;;10.50;99.90;;;;;;6193910;23;20623;-89
2021/04/22 10:22:58;;;;;;;9.00;3.90;;;10.80;99.90;;;;;;6222371;22;20584;-88
2021/04/22 10:26:04;;;;;;;7.37;4.03;;;10.50;99.90;;;;;;6192694;23;20609;-88
2021/04/22 10:28:30;;;;;;;6.90;3.73;;;10.70;99.90;;;;;;6186295;23;20668;-88
2021/04/22 10:30:59;;;;;;;8.90;4.73;;;10.70;99.90;;;;;;6190346;23;20556;-91
2021/04/22 10:33:26;;;;;;;11.50;3.90;;;10.80;99.90;;;;;;6189656;22;20666;-87
2021/04/22 10:35:52;;;;;;;8.60;4.23;;;10.70;99.90;;;;;;6323189;22;20609;-85
2021/04/22 10:38:22;;;;;;;9.30;3.93;;;10.70;99.90;;;;;;6195219;23;20559;-87
2021/04/22 10:40:51;;;;;;;9.27;3.90;;;10.90;99.90;;;;;;6221458;23;20647;-88
2021/04/22 10:43:27;;;;;;;6.87;4.07;;;10.70;99.90;;;;;;6196051;22;20583;-89
2021/04/22 10:45:57;;;;;;;8.50;3.80;;;10.70;99.90;;;;;;6194523;23;20589;-88
2021/04/22 10:48:24;;;;;;;6.77;3.30;;;10.70;99.90;;;;;;6192496;23;20563;-89
2021/04/22 10:50:53;;;;;;;9.43;3.97;;;10.90;99.90;;;;;;6191963;23;20590;-89
2021/04/22 10:53:20;;;;;;;8.13;3.73;;;11.00;99.90;;;;;;6186697;22;20789;-90
2021/04/22 10:55:48;;;;;;;11.70;3.60;;;10.90;99.90;;;;;;6189709;23;20571;-91
2021/04/22 10:58:29;;;;;;;7.40;3.97;;;11.00;99.90;;;;;;6192688;23;20600;-91
2021/04/22 11:00:59;;;;;;;7.77;3.93;;;10.90;99.90;;;;;;6187208;23;20580;-88
2021/04/22 11:03:46;;;;;;;8.10;3.30;;;11.10;99.90;;;;;;6209608;22;20625;-91
2021/04/22 11:06:13;;;;;;;7.20;3.67;;;11.20;99.90;;;;;;6184934;23;20627;-85
2021/04/22 11:08:49;;;;;;;5.87;3.47;;;11.20;99.90;;;;;;6213865;23;20563;-90
2021/04/22 11:11:21;;;;;;;8.40;3.60;;;11.20;99.90;;;;;;6177368;23;20611;-89
2021/04/22 11:13:50;;;;;;;9.10;4.13;;;11.10;99.90;;;;;;6183732;22;20595;-90
2021/04/22 11:16:28;;;;;;;8.47;3.40;;;11.20;99.90;;;;;;6188454;23;20631;-91
2021/04/22 11:18:54;;;;;;;5.60;3.90;;;11.10;99.90;;;;;;6185226;23;20590;-89
2021/04/22 11:21:24;;;;;;;6.67;3.60;;;11.00;99.90;;;;;;6187246;23;20583;-88
2021/04/22 11:23:50;;;;;;;5.00;3.27;;;11.00;99.90;;;;;;6188390;22;20219;-90
2021/04/22 11:26:22;;;;;;;10.97;3.80;;;11.00;99.90;;;;;;6215081;23;20532;-88
2021/04/22 11:28:48;;;;;;;7.33;3.03;;;11.00;99.90;;;;;;6188412;23;20609;-89
2021/04/22 11:31:17;;;;;;;5.73;3.23;;;10.90;99.90;;;;;;6189810;23;20611;-89
2021/04/22 11:33:44;;;;;;;5.77;3.60;;;10.90;99.90;;;;;;6186564;22;20588;-88
2021/04/22 11:36:12;;;;;;;5.43;3.20;;;11.10;99.90;;;;;;6217369;23;20572;-88
2021/04/22 11:38:51;;;;;;;9.53;4.10;;;10.90;99.90;;;;;;6189111;23;20608;-90
2021/04/22 11:41:17;;;;;;;7.63;3.17;;;10.80;99.90;;;;;;6216482;23;20558;-90
2021/04/22 11:43:43;;;;;;;7.80;4.00;;;10.70;99.90;;;;;;6189101;22;20634;-89
2021/04/22 11:46:09;;;;;;;8.40;4.70;;;10.50;99.90;;;;;;6217620;23;21034;-90
2021/04/22 11:48:43;;;;;;;6.10;3.53;;;10.50;99.90;;;;;;6190809;23;20171;-89
2021/04/22 11:51:10;;;;;;;9.27;3.70;;;10.60;99.90;;;;;;6190628;23;21216;-89
2021/04/22 11:53:42;;;;;;;6.47;3.80;;;10.60;99.90;;;;;;6190084;22;20599;-86
2021/04/22 11:56:12;;;;;;;8.80;4.27;;;10.40;99.90;;;;;;6192824;23;20559;-89
2021/04/22 11:58:38;;;;;;;8.93;4.20;;;10.60;99.90;;;;;;6197199;23;20559;-85
2021/04/22 12:01:08;;;;;;;7.37;3.90;;;10.40;99.90;;;;;;6198843;23;21026;-88
2021/04/22 12:06:05;;;;;;;6.57;3.90;;;10.40;99.90;;;;;;6253691;22;20622;-60
2021/04/22 12:08:46;;;;;;;5.53;4.30;;;10.50;99.90;;;;;;6231839;22;20572;-60
2021/04/22 12:11:19;;;;;;;7.30;3.83;;;10.60;99.90;;;;;;6340968;22;21137;-62
2021/04/22 12:13:46;;;;;;;8.33;4.17;;;10.60;99.90;;;;;;6203578;23;20565;-61
2021/04/22 12:16:15;;;;;;;6.37;4.33;;;10.70;99.90;;;;;;6203984;23;20558;-60
2021/04/22 12:18:43;;;;;;;5.70;3.67;;;10.70;99.90;;;;;;6229842;23;21114;-59
2021/04/22 12:21:19;;;;;;;8.10;4.10;;;10.80;99.90;;;;;;6204413;23;20578;-61
2021/04/22 12:23:48;;;;;;;9.27;4.30;;;10.70;99.90;;;;;;6201013;23;20951;-61
2021/04/22 12:26:20;;;;;;;8.63;4.00;;;10.90;99.90;;;;;;6201310;23;20566;-60
2021/04/22 12:29:05;;;;;;;6.37;4.00;;;10.80;99.90;;;;;;6230553;23;20564;-61
2021/04/22 12:31:36;;;;;;;10.70;4.53;;;11.00;99.90;;;;;;6202726;22;20598;-61
2021/04/22 12:34:18;;;;;;;6.63;4.10;;;10.90;99.90;;;;;;6226191;23;20524;-61
2021/04/22 12:36:54;;;;;;;6.97;4.17;;;10.90;99.90;;;;;;6230398;23;20503;-60
2021/04/22 12:39:58;;;;;;;9.83;4.50;;;11.00;99.90;;;;;;6228149;22;21192;-60
2021/04/22 12:42:27;;;;;;;7.40;4.37;;;10.90;99.90;;;;;;6229113;22;20573;-59
2021/04/22 12:45:08;;;;;;;8.13;3.93;;;10.90;99.90;;;;;;6229766;23;20800;-60
2021/04/22 12:47:38;;;;;;;7.77;4.40;;;10.70;99.90;;;;;;6232390;23;20547;-59
2021/04/22 12:50:28;;;;;;;5.87;3.93;;;10.60;99.90;;;;;;6197522;23;20605;-60
2021/04/22 12:53:23;;;;;;;10.27;4.23;;;10.60;99.90;;;;;;6226922;23;20578;-60
2021/04/22 12:56:01;;;;;;;6.90;3.93;;;10.70;99.90;;;;;;6227091;23;20563;-61
2021/04/22 12:58:30;;;;;;;6.53;3.83;;;10.90;99.90;;;;;;6206371;23;20888;-58
2021/04/22 13:01:08;;;;;;;5.70;3.90;;;11.20;99.90;;;;;;6228576;22;20554;-59
2021/04/22 13:03:35;;;;;;;8.93;3.67;;;11.50;99.90;;;;;;6233778;23;20491;-61
2021/04/22 13:06:04;;;;;;;6.40;4.03;;;11.80;99.90;;;;;;6228647;23;20547;-61